sensor_id;sensor_type;location;lat;lon;timestamp;P1;durP1;ratioP1;P2;durP2;ratioP2
7587;SDS011;3835;48.850;8.938;2024-01-11T00:02:05;46.80;;;31.13;;
7587;SDS011;3835;48.850;8.938;2024-01-11T00:04:32;50.13;;;31.98;;
7587;SDS011;3835;48.850;8.938;2024-01-11T00:06:59;47.05;;;30.35;;
7587;SDS011;3835;48.850;8.938;2024-01-11T00:09:26;54.00;;;32.88;;
7587;SDS011;3835;48.850;8.938;2024-01-11T00:11:53;44.63;;;30.88;;
7587;SDS011;3835;48.850;8.938;2024-01-11T00:14:20;48.15;;;30.95;;
7587;SDS011;3835;48.850;8.938;2024-01-11T00:16:48;50.10;;;30.70;;
7587;SDS011;3835;48.850;8.938;2024-01-11T00:19:14;46.95;;;32.15;;
7587;SDS011;3835;48.850;8.938;2024-01-11T00:21:41;45.92;;;31.08;;
7587;SDS011;3835;48.850;8.938;2024-01-11T00:24:08;48.25;;;30.50;;
7587;SDS011;3835;48.850;8.938;2024-01-11T00:26:34;49.35;;;30.63;;
7587;SDS011;3835;48.850;8.938;2024-01-11T00:29:02;51.35;;;30.90;;
7587;SDS011;3835;48.850;8.938;2024-01-11T00:31:29;44.53;;;29.30;;
7587;SDS011;3835;48.850;8.938;2024-01-11T00:33:57;49.08;;;31.88;;
7587;SDS011;3835;48.850;8.938;2024-01-11T00:36:24;46.10;;;30.38;;
7587;SDS011;3835;48.850;8.938;2024-01-11T00:38:51;42.75;;;30.13;;
7587;SDS011;3835;48.850;8.938;2024-01-11T00:41:18;44.28;;;30.92;;
7587;SDS011;3835;48.850;8.938;2024-01-11T00:43:45;45.85;;;31.67;;
7587;SDS011;3835;48.850;8.938;2024-01-11T00:46:12;41.92;;;29.75;;
7587;SDS011;3835;48.850;8.938;2024-01-11T00:48:39;42.90;;;31.25;;
7587;SDS011;3835;48.850;8.938;2024-01-11T00:51:07;47.15;;;31.17;;
7587;SDS011;3835;48.850;8.938;2024-01-11T00:53:34;46.13;;;29.92;;
7587;SDS011;3835;48.850;8.938;2024-01-11T00:56:01;45.83;;;31.67;;
7587;SDS011;3835;48.850;8.938;2024-01-11T00:58:28;47.92;;;30.10;;
7587;SDS011;3835;48.850;8.938;2024-01-11T01:00:54;50.67;;;32.90;;
7587;SDS011;3835;48.850;8.938;2024-01-11T01:03:21;48.20;;;30.52;;
7587;SDS011;3835;48.850;8.938;2024-01-11T01:05:48;52.72;;;31.33;;
7587;SDS011;3835;48.850;8.938;2024-01-11T01:08:17;50.53;;;31.65;;
7587;SDS011;3835;48.850;8.938;2024-01-11T01:10:43;51.13;;;31.63;;
7587;SDS011;3835;48.850;8.938;2024-01-11T01:13:10;54.85;;;32.38;;
7587;SDS011;3835;48.850;8.938;2024-01-11T01:15:37;53.05;;;32.80;;
7587;SDS011;3835;48.850;8.938;2024-01-11T01:18:04;49.72;;;33.42;;
7587;SDS011;3835;48.850;8.938;2024-01-11T01:20:31;53.15;;;33.47;;
7587;SDS011;3835;48.850;8.938;2024-01-11T01:22:58;50.72;;;31.95;;
7587;SDS011;3835;48.850;8.938;2024-01-11T01:25:26;47.72;;;30.98;;
7587;SDS011;3835;48.850;8.938;2024-01-11T01:27:53;50.13;;;31.85;;
7587;SDS011;3835;48.850;8.938;2024-01-11T01:30:20;48.08;;;30.42;;
7587;SDS011;3835;48.850;8.938;2024-01-11T01:32:47;48.85;;;30.13;;
7587;SDS011;3835;48.850;8.938;2024-01-11T01:35:14;44.60;;;29.05;;
7587;SDS011;3835;48.850;8.938;2024-01-11T01:37:40;45.28;;;30.00;;
7587;SDS011;3835;48.850;8.938;2024-01-11T01:40:08;48.85;;;30.73;;
7587;SDS011;3835;48.850;8.938;2024-01-11T01:42:40;48.03;;;29.92;;
7587;SDS011;3835;48.850;8.938;2024-01-11T01:45:08;47.33;;;30.65;;
7587;SDS011;3835;48.850;8.938;2024-01-11T01:47:35;45.53;;;31.20;;
7587;SDS011;3835;48.850;8.938;2024-01-11T01:50:03;47.75;;;31.50;;
7587;SDS011;3835;48.850;8.938;2024-01-11T01:52:31;41.42;;;28.15;;
7587;SDS011;3835;48.850;8.938;2024-01-11T01:54:59;48.95;;;32.33;;
7587;SDS011;3835;48.850;8.938;2024-01-11T01:57:29;48.75;;;31.63;;
7587;SDS011;3835;48.850;8.938;2024-01-11T02:00:00;48.90;;;31.50;;
7587;SDS011;3835;48.850;8.938;2024-01-11T02:02:28;46.15;;;30.35;;
7587;SDS011;3835;48.850;8.938;2024-01-11T02:04:57;44.45;;;29.67;;
7587;SDS011;3835;48.850;8.938;2024-01-11T02:07:24;44.63;;;31.50;;
7587;SDS011;3835;48.850;8.938;2024-01-11T02:09:51;42.58;;;29.95;;
7587;SDS011;3835;48.850;8.938;2024-01-11T02:12:18;45.58;;;30.20;;
7587;SDS011;3835;48.850;8.938;2024-01-11T02:14:46;43.85;;;29.38;;
7587;SDS011;3835;48.850;8.938;2024-01-11T02:17:14;47.63;;;28.40;;
7587;SDS011;3835;48.850;8.938;2024-01-11T02:19:41;40.50;;;29.08;;
7587;SDS011;3835;48.850;8.938;2024-01-11T02:22:08;42.95;;;29.23;;
7587;SDS011;3835;48.850;8.938;2024-01-11T02:24:42;42.55;;;29.67;;
7587;SDS011;3835;48.850;8.938;2024-01-11T02:27:08;38.90;;;29.23;;
7587;SDS011;3835;48.850;8.938;2024-01-11T02:29:35;45.17;;;31.42;;
7587;SDS011;3835;48.850;8.938;2024-01-11T02:32:02;48.17;;;30.75;;
7587;SDS011;3835;48.850;8.938;2024-01-11T02:34:31;48.58;;;29.70;;
7587;SDS011;3835;48.850;8.938;2024-01-11T02:36:59;49.65;;;29.92;;
7587;SDS011;3835;48.850;8.938;2024-01-11T02:39:26;50.92;;;30.15;;
7587;SDS011;3835;48.850;8.938;2024-01-11T02:41:56;48.75;;;31.90;;
7587;SDS011;3835;48.850;8.938;2024-01-11T02:44:23;45.75;;;28.05;;
7587;SDS011;3835;48.850;8.938;2024-01-11T02:46:50;46.50;;;31.40;;
7587;SDS011;3835;48.850;8.938;2024-01-11T02:49:17;45.65;;;30.60;;
7587;SDS011;3835;48.850;8.938;2024-01-11T02:51:44;45.80;;;29.98;;
7587;SDS011;3835;48.850;8.938;2024-01-11T02:54:11;47.85;;;30.13;;
7587;SDS011;3835;48.850;8.938;2024-01-11T02:56:38;42.42;;;31.15;;
7587;SDS011;3835;48.850;8.938;2024-01-11T02:59:06;45.90;;;31.35;;
7587;SDS011;3835;48.850;8.938;2024-01-11T03:01:33;47.05;;;30.42;;
7587;SDS011;3835;48.850;8.938;2024-01-11T03:03:59;44.63;;;30.90;;
7587;SDS011;3835;48.850;8.938;2024-01-11T03:06:26;43.60;;;29.95;;
7587;SDS011;3835;48.850;8.938;2024-01-11T03:08:53;47.63;;;31.98;;
7587;SDS011;3835;48.850;8.938;2024-01-11T03:11:20;54.45;;;31.15;;
7587;SDS011;3835;48.850;8.938;2024-01-11T03:13:47;46.72;;;31.10;;
7587;SDS011;3835;48.850;8.938;2024-01-11T03:16:15;50.38;;;31.63;;
7587;SDS011;3835;48.850;8.938;2024-01-11T03:18:42;52.22;;;30.75;;
7587;SDS011;3835;48.850;8.938;2024-01-11T03:21:08;53.80;;;29.83;;
7587;SDS011;3835;48.850;8.938;2024-01-11T03:23:34;49.80;;;29.98;;
7587;SDS011;3835;48.850;8.938;2024-01-11T03:26:01;48.63;;;30.30;;
7587;SDS011;3835;48.850;8.938;2024-01-11T03:28:28;47.17;;;29.98;;
7587;SDS011;3835;48.850;8.938;2024-01-11T03:30:56;46.03;;;29.98;;
7587;SDS011;3835;48.850;8.938;2024-01-11T03:33:24;45.47;;;30.92;;
7587;SDS011;3835;48.850;8.938;2024-01-11T03:35:51;47.35;;;31.95;;
7587;SDS011;3835;48.850;8.938;2024-01-11T03:38:18;48.65;;;29.05;;
7587;SDS011;3835;48.850;8.938;2024-01-11T03:40:45;47.15;;;30.70;;
7587;SDS011;3835;48.850;8.938;2024-01-11T03:43:12;47.83;;;30.33;;
7587;SDS011;3835;48.850;8.938;2024-01-11T03:45:39;49.78;;;32.15;;
7587;SDS011;3835;48.850;8.938;2024-01-11T03:48:05;49.40;;;31.08;;
7587;SDS011;3835;48.850;8.938;2024-01-11T03:50:34;43.55;;;31.08;;
7587;SDS011;3835;48.850;8.938;2024-01-11T03:53:00;44.33;;;30.00;;
7587;SDS011;3835;48.850;8.938;2024-01-11T03:55:28;48.33;;;30.75;;
7587;SDS011;3835;48.850;8.938;2024-01-11T03:57:55;47.20;;;30.42;;
7587;SDS011;3835;48.850;8.938;2024-01-11T04:00:21;52.85;;;30.08;;
7587;SDS011;3835;48.850;8.938;2024-01-11T04:02:48;47.17;;;30.50;;
7587;SDS011;3835;48.850;8.938;2024-01-11T04:05:15;50.15;;;31.27;;
7587;SDS011;3835;48.850;8.938;2024-01-11T04:07:43;48.03;;;29.73;;
7587;SDS011;3835;48.850;8.938;2024-01-11T04:10:10;44.17;;;30.50;;
7587;SDS011;3835;48.850;8.938;2024-01-11T04:12:37;47.88;;;30.00;;
7587;SDS011;3835;48.850;8.938;2024-01-11T04:15:04;43.22;;;29.92;;
7587;SDS011;3835;48.850;8.938;2024-01-11T04:17:32;46.80;;;30.35;;
7587;SDS011;3835;48.850;8.938;2024-01-11T04:19:58;46.53;;;30.40;;
7587;SDS011;3835;48.850;8.938;2024-01-11T04:22:26;46.20;;;31.08;;
7587;SDS011;3835;48.850;8.938;2024-01-11T04:24:55;51.45;;;30.60;;
7587;SDS011;3835;48.850;8.938;2024-01-11T04:27:22;54.75;;;31.40;;
7587;SDS011;3835;48.850;8.938;2024-01-11T04:29:49;53.58;;;30.50;;
7587;SDS011;3835;48.850;8.938;2024-01-11T04:32:16;43.47;;;30.70;;
7587;SDS011;3835;48.850;8.938;2024-01-11T04:34:43;55.47;;;32.38;;
7587;SDS011;3835;48.850;8.938;2024-01-11T04:37:09;50.30;;;32.95;;
7587;SDS011;3835;48.850;8.938;2024-01-11T04:39:36;50.38;;;30.67;;
7587;SDS011;3835;48.850;8.938;2024-01-11T04:42:05;53.55;;;31.70;;
7587;SDS011;3835;48.850;8.938;2024-01-11T04:44:31;44.17;;;29.77;;
7587;SDS011;3835;48.850;8.938;2024-01-11T04:46:58;52.75;;;32.13;;
7587;SDS011;3835;48.850;8.938;2024-01-11T04:49:25;58.90;;;35.17;;
7587;SDS011;3835;48.850;8.938;2024-01-11T04:51:52;152.57;;;57.55;;
7587;SDS011;3835;48.850;8.938;2024-01-11T04:54:19;133.48;;;53.83;;
7587;SDS011;3835;48.850;8.938;2024-01-11T04:56:45;171.45;;;64.07;;
7587;SDS011;3835;48.850;8.938;2024-01-11T04:59:14;50.13;;;31.45;;
7587;SDS011;3835;48.850;8.938;2024-01-11T05:01:40;89.00;;;42.85;;
7587;SDS011;3835;48.850;8.938;2024-01-11T05:04:08;44.08;;;28.30;;
7587;SDS011;3835;48.850;8.938;2024-01-11T05:09:02;58.20;;;33.45;;
7587;SDS011;3835;48.850;8.938;2024-01-11T05:11:30;60.35;;;35.83;;
7587;SDS011;3835;48.850;8.938;2024-01-11T05:13:57;52.35;;;33.50;;
7587;SDS011;3835;48.850;8.938;2024-01-11T05:16:25;46.20;;;31.80;;
7587;SDS011;3835;48.850;8.938;2024-01-11T05:18:54;51.55;;;32.90;;
7587;SDS011;3835;48.850;8.938;2024-01-11T05:21:21;54.63;;;32.00;;
7587;SDS011;3835;48.850;8.938;2024-01-11T05:23:48;66.18;;;37.17;;
7587;SDS011;3835;48.850;8.938;2024-01-11T05:26:16;73.65;;;39.38;;
7587;SDS011;3835;48.850;8.938;2024-01-11T05:28:44;68.55;;;39.58;;
7587;SDS011;3835;48.850;8.938;2024-01-11T05:31:11;47.30;;;32.47;;
7587;SDS011;3835;48.850;8.938;2024-01-11T05:33:41;56.17;;;33.78;;
7587;SDS011;3835;48.850;8.938;2024-01-11T05:36:08;50.58;;;33.20;;
7587;SDS011;3835;48.850;8.938;2024-01-11T05:38:35;55.88;;;32.00;;
7587;SDS011;3835;48.850;8.938;2024-01-11T05:41:02;53.65;;;31.85;;
7587;SDS011;3835;48.850;8.938;2024-01-11T05:43:29;47.22;;;31.23;;
7587;SDS011;3835;48.850;8.938;2024-01-11T05:45:56;51.67;;;32.13;;
7587;SDS011;3835;48.850;8.938;2024-01-11T05:48:23;50.65;;;32.33;;
7587;SDS011;3835;48.850;8.938;2024-01-11T05:50:52;54.72;;;32.50;;
7587;SDS011;3835;48.850;8.938;2024-01-11T05:53:18;46.22;;;30.98;;
7587;SDS011;3835;48.850;8.938;2024-01-11T05:55:46;49.22;;;30.95;;
7587;SDS011;3835;48.850;8.938;2024-01-11T05:58:13;43.80;;;29.08;;
7587;SDS011;3835;48.850;8.938;2024-01-11T06:00:40;46.03;;;31.50;;
7587;SDS011;3835;48.850;8.938;2024-01-11T06:03:07;49.25;;;30.50;;
7587;SDS011;3835;48.850;8.938;2024-01-11T06:05:34;55.67;;;32.05;;
7587;SDS011;3835;48.850;8.938;2024-01-11T06:08:02;47.80;;;32.05;;
7587;SDS011;3835;48.850;8.938;2024-01-11T06:10:30;51.88;;;31.80;;
7587;SDS011;3835;48.850;8.938;2024-01-11T06:12:57;48.30;;;30.30;;
7587;SDS011;3835;48.850;8.938;2024-01-11T06:15:24;50.60;;;32.55;;
7587;SDS011;3835;48.850;8.938;2024-01-11T06:17:51;47.83;;;30.08;;
7587;SDS011;3835;48.850;8.938;2024-01-11T06:20:18;48.70;;;34.38;;
7587;SDS011;3835;48.850;8.938;2024-01-11T06:22:45;70.32;;;36.95;;
7587;SDS011;3835;48.850;8.938;2024-01-11T06:25:14;76.82;;;41.20;;
7587;SDS011;3835;48.850;8.938;2024-01-11T06:27:43;82.38;;;40.83;;
7587;SDS011;3835;48.850;8.938;2024-01-11T06:30:10;89.32;;;43.80;;
7587;SDS011;3835;48.850;8.938;2024-01-11T06:32:37;84.53;;;42.45;;
7587;SDS011;3835;48.850;8.938;2024-01-11T06:35:05;74.70;;;41.95;;
7587;SDS011;3835;48.850;8.938;2024-01-11T06:37:32;63.25;;;38.00;;
7587;SDS011;3835;48.850;8.938;2024-01-11T06:39:59;61.00;;;36.05;;
7587;SDS011;3835;48.850;8.938;2024-01-11T06:42:28;63.88;;;36.58;;
7587;SDS011;3835;48.850;8.938;2024-01-11T06:44:54;65.47;;;36.40;;
7587;SDS011;3835;48.850;8.938;2024-01-11T06:47:21;53.63;;;34.42;;
7587;SDS011;3835;48.850;8.938;2024-01-11T06:49:48;57.00;;;34.85;;
7587;SDS011;3835;48.850;8.938;2024-01-11T06:52:15;54.30;;;33.88;;
7587;SDS011;3835;48.850;8.938;2024-01-11T06:54:42;48.60;;;34.10;;
7587;SDS011;3835;48.850;8.938;2024-01-11T06:57:09;57.45;;;35.03;;
7587;SDS011;3835;48.850;8.938;2024-01-11T06:59:37;59.72;;;35.33;;
7587;SDS011;3835;48.850;8.938;2024-01-11T07:02:04;57.78;;;37.60;;
7587;SDS011;3835;48.850;8.938;2024-01-11T07:04:31;56.17;;;35.28;;
7587;SDS011;3835;48.850;8.938;2024-01-11T07:06:58;60.00;;;36.22;;
7587;SDS011;3835;48.850;8.938;2024-01-11T07:09:25;82.50;;;45.28;;
7587;SDS011;3835;48.850;8.938;2024-01-11T07:11:51;57.15;;;35.35;;
7587;SDS011;3835;48.850;8.938;2024-01-11T07:14:18;62.28;;;35.33;;
7587;SDS011;3835;48.850;8.938;2024-01-11T07:16:47;57.75;;;34.63;;
7587;SDS011;3835;48.850;8.938;2024-01-11T07:19:14;57.42;;;34.85;;
7587;SDS011;3835;48.850;8.938;2024-01-11T07:21:41;59.72;;;35.25;;
7587;SDS011;3835;48.850;8.938;2024-01-11T07:24:08;55.03;;;34.03;;
7587;SDS011;3835;48.850;8.938;2024-01-11T07:26:35;61.03;;;35.40;;
7587;SDS011;3835;48.850;8.938;2024-01-11T07:29:02;53.53;;;34.67;;
7587;SDS011;3835;48.850;8.938;2024-01-11T07:31:29;56.63;;;34.38;;
7587;SDS011;3835;48.850;8.938;2024-01-11T07:33:57;78.00;;;41.65;;
7587;SDS011;3835;48.850;8.938;2024-01-11T07:36:25;66.30;;;36.28;;
7587;SDS011;3835;48.850;8.938;2024-01-11T07:38:52;59.67;;;32.75;;
7587;SDS011;3835;48.850;8.938;2024-01-11T07:41:20;58.83;;;33.78;;
7587;SDS011;3835;48.850;8.938;2024-01-11T07:43:47;56.10;;;33.25;;
7587;SDS011;3835;48.850;8.938;2024-01-11T07:46:14;66.25;;;35.22;;
7587;SDS011;3835;48.850;8.938;2024-01-11T07:48:41;89.85;;;46.65;;
7587;SDS011;3835;48.850;8.938;2024-01-11T07:51:10;53.28;;;33.53;;
7587;SDS011;3835;48.850;8.938;2024-01-11T07:53:36;50.22;;;34.15;;
7587;SDS011;3835;48.850;8.938;2024-01-11T07:56:03;49.78;;;34.78;;
7587;SDS011;3835;48.850;8.938;2024-01-11T07:58:30;78.68;;;42.03;;
7587;SDS011;3835;48.850;8.938;2024-01-11T08:00:57;64.30;;;36.65;;
7587;SDS011;3835;48.850;8.938;2024-01-11T08:03:24;61.35;;;34.40;;
7587;SDS011;3835;48.850;8.938;2024-01-11T08:05:52;55.45;;;32.00;;
7587;SDS011;3835;48.850;8.938;2024-01-11T08:08:21;65.85;;;33.65;;
7587;SDS011;3835;48.850;8.938;2024-01-11T08:10:47;52.97;;;33.80;;
7587;SDS011;3835;48.850;8.938;2024-01-11T08:13:15;53.45;;;33.95;;
7587;SDS011;3835;48.850;8.938;2024-01-11T08:15:42;55.72;;;35.28;;
7587;SDS011;3835;48.850;8.938;2024-01-11T08:18:09;52.50;;;32.53;;
7587;SDS011;3835;48.850;8.938;2024-01-11T08:20:36;59.25;;;34.78;;
7587;SDS011;3835;48.850;8.938;2024-01-11T08:23:04;55.60;;;34.25;;
7587;SDS011;3835;48.850;8.938;2024-01-11T08:25:33;60.38;;;33.47;;
7587;SDS011;3835;48.850;8.938;2024-01-11T08:28:00;51.83;;;33.33;;
7587;SDS011;3835;48.850;8.938;2024-01-11T08:30:28;51.55;;;32.38;;
7587;SDS011;3835;48.850;8.938;2024-01-11T08:32:54;53.05;;;34.15;;
7587;SDS011;3835;48.850;8.938;2024-01-11T08:35:21;55.88;;;33.20;;
7587;SDS011;3835;48.850;8.938;2024-01-11T08:37:48;52.97;;;33.22;;
7587;SDS011;3835;48.850;8.938;2024-01-11T08:40:15;51.53;;;32.17;;
7587;SDS011;3835;48.850;8.938;2024-01-11T08:42:44;58.72;;;34.97;;
7587;SDS011;3835;48.850;8.938;2024-01-11T08:45:11;51.65;;;32.20;;
7587;SDS011;3835;48.850;8.938;2024-01-11T08:47:42;48.30;;;32.13;;
7587;SDS011;3835;48.850;8.938;2024-01-11T08:50:11;52.60;;;30.83;;
7587;SDS011;3835;48.850;8.938;2024-01-11T08:52:39;47.35;;;31.55;;
7587;SDS011;3835;48.850;8.938;2024-01-11T08:55:06;49.92;;;31.75;;
7587;SDS011;3835;48.850;8.938;2024-01-11T08:57:33;44.78;;;30.17;;
7587;SDS011;3835;48.850;8.938;2024-01-11T09:00:03;44.38;;;31.58;;
7587;SDS011;3835;48.850;8.938;2024-01-11T09:02:31;51.95;;;33.92;;
7587;SDS011;3835;48.850;8.938;2024-01-11T09:04:58;52.05;;;36.42;;
7587;SDS011;3835;48.850;8.938;2024-01-11T09:07:25;45.40;;;35.78;;
7587;SDS011;3835;48.850;8.938;2024-01-11T09:09:52;51.22;;;35.33;;
7587;SDS011;3835;48.850;8.938;2024-01-11T09:12:20;46.00;;;33.42;;
7587;SDS011;3835;48.850;8.938;2024-01-11T09:14:47;50.42;;;33.95;;
7587;SDS011;3835;48.850;8.938;2024-01-11T09:17:16;49.42;;;32.17;;
7587;SDS011;3835;48.850;8.938;2024-01-11T09:19:43;45.20;;;32.13;;
7587;SDS011;3835;48.850;8.938;2024-01-11T09:22:09;49.78;;;31.00;;
7587;SDS011;3835;48.850;8.938;2024-01-11T09:24:36;44.33;;;30.40;;
7587;SDS011;3835;48.850;8.938;2024-01-11T09:27:03;47.88;;;29.88;;
7587;SDS011;3835;48.850;8.938;2024-01-11T09:29:30;46.88;;;30.70;;
7587;SDS011;3835;48.850;8.938;2024-01-11T09:31:58;45.92;;;31.33;;
7587;SDS011;3835;48.850;8.938;2024-01-11T09:34:27;45.50;;;31.02;;
7587;SDS011;3835;48.850;8.938;2024-01-11T09:36:54;47.42;;;29.85;;
7587;SDS011;3835;48.850;8.938;2024-01-11T09:39:23;44.17;;;30.98;;
7587;SDS011;3835;48.850;8.938;2024-01-11T09:41:51;37.78;;;29.65;;
7587;SDS011;3835;48.850;8.938;2024-01-11T09:44:24;43.95;;;29.52;;
7587;SDS011;3835;48.850;8.938;2024-01-11T09:46:52;49.58;;;29.65;;
7587;SDS011;3835;48.850;8.938;2024-01-11T09:49:21;45.42;;;30.25;;
7587;SDS011;3835;48.850;8.938;2024-01-11T09:51:51;45.13;;;30.35;;
7587;SDS011;3835;48.850;8.938;2024-01-11T09:54:21;46.03;;;30.23;;
7587;SDS011;3835;48.850;8.938;2024-01-11T09:56:49;47.75;;;31.30;;
7587;SDS011;3835;48.850;8.938;2024-01-11T09:59:17;43.15;;;30.17;;
7587;SDS011;3835;48.850;8.938;2024-01-11T10:01:47;40.45;;;29.15;;
7587;SDS011;3835;48.850;8.938;2024-01-11T10:04:14;48.10;;;30.88;;
7587;SDS011;3835;48.850;8.938;2024-01-11T10:06:42;42.70;;;28.92;;
7587;SDS011;3835;48.850;8.938;2024-01-11T10:09:11;51.25;;;30.52;;
7587;SDS011;3835;48.850;8.938;2024-01-11T10:11:39;48.97;;;30.33;;
7587;SDS011;3835;48.850;8.938;2024-01-11T10:14:05;46.08;;;31.65;;
7587;SDS011;3835;48.850;8.938;2024-01-11T10:16:33;43.88;;;31.48;;
7587;SDS011;3835;48.850;8.938;2024-01-11T10:19:03;46.20;;;31.33;;
7587;SDS011;3835;48.850;8.938;2024-01-11T10:21:30;45.35;;;31.48;;
7587;SDS011;3835;48.850;8.938;2024-01-11T10:23:57;47.88;;;33.10;;
7587;SDS011;3835;48.850;8.938;2024-01-11T10:26:26;47.80;;;34.45;;
7587;SDS011;3835;48.850;8.938;2024-01-11T10:28:54;47.35;;;39.03;;
7587;SDS011;3835;48.850;8.938;2024-01-11T10:31:27;49.00;;;41.10;;
7587;SDS011;3835;48.850;8.938;2024-01-11T10:33:54;45.53;;;37.17;;
7587;SDS011;3835;48.850;8.938;2024-01-11T10:36:21;47.42;;;35.38;;
7587;SDS011;3835;48.850;8.938;2024-01-11T10:38:49;44.28;;;34.45;;
7587;SDS011;3835;48.850;8.938;2024-01-11T10:41:18;46.60;;;35.60;;
7587;SDS011;3835;48.850;8.938;2024-01-11T10:43:48;49.45;;;32.72;;
7587;SDS011;3835;48.850;8.938;2024-01-11T10:46:15;47.45;;;33.78;;
7587;SDS011;3835;48.850;8.938;2024-01-11T10:49:14;47.78;;;31.90;;
7587;SDS011;3835;48.850;8.938;2024-01-11T10:52:08;44.58;;;33.10;;
7587;SDS011;3835;48.850;8.938;2024-01-11T10:54:39;43.53;;;31.25;;
7587;SDS011;3835;48.850;8.938;2024-01-11T10:57:07;48.63;;;32.97;;
7587;SDS011;3835;48.850;8.938;2024-01-11T10:59:37;49.65;;;31.77;;
7587;SDS011;3835;48.850;8.938;2024-01-11T11:02:06;43.90;;;31.40;;
7587;SDS011;3835;48.850;8.938;2024-01-11T11:04:37;43.60;;;30.33;;
7587;SDS011;3835;48.850;8.938;2024-01-11T11:09:38;44.33;;;31.00;;
7587;SDS011;3835;48.850;8.938;2024-01-11T11:12:09;42.72;;;31.00;;
7587;SDS011;3835;48.850;8.938;2024-01-11T11:14:38;45.35;;;31.80;;
7587;SDS011;3835;48.850;8.938;2024-01-11T11:17:06;45.92;;;31.45;;
7587;SDS011;3835;48.850;8.938;2024-01-11T11:19:33;45.75;;;31.77;;
7587;SDS011;3835;48.850;8.938;2024-01-11T11:22:00;50.30;;;32.45;;
7587;SDS011;3835;48.850;8.938;2024-01-11T11:24:30;43.55;;;31.05;;
7587;SDS011;3835;48.850;8.938;2024-01-11T11:26:59;51.17;;;31.80;;
7587;SDS011;3835;48.850;8.938;2024-01-11T11:29:26;49.13;;;33.63;;
7587;SDS011;3835;48.850;8.938;2024-01-11T11:31:54;47.95;;;34.63;;
7587;SDS011;3835;48.850;8.938;2024-01-11T11:37:06;48.35;;;32.22;;
7587;SDS011;3835;48.850;8.938;2024-01-11T11:39:33;47.50;;;32.53;;
7587;SDS011;3835;48.850;8.938;2024-01-11T11:42:00;51.70;;;31.77;;
7587;SDS011;3835;48.850;8.938;2024-01-11T11:44:28;43.20;;;32.13;;
7587;SDS011;3835;48.850;8.938;2024-01-11T11:46:57;47.22;;;31.15;;
7587;SDS011;3835;48.850;8.938;2024-01-11T11:49:57;48.20;;;32.87;;
7587;SDS011;3835;48.850;8.938;2024-01-11T11:52:25;44.60;;;31.80;;
7587;SDS011;3835;48.850;8.938;2024-01-11T11:54:52;43.97;;;33.07;;
7587;SDS011;3835;48.850;8.938;2024-01-11T11:57:20;46.43;;;32.93;;
7587;SDS011;3835;48.850;8.938;2024-01-11T11:59:48;46.50;;;32.03;;
7587;SDS011;3835;48.850;8.938;2024-01-11T12:02:18;42.30;;;31.37;;
7587;SDS011;3835;48.850;8.938;2024-01-11T12:04:47;46.53;;;31.37;;
7587;SDS011;3835;48.850;8.938;2024-01-11T12:07:14;46.65;;;31.02;;
7587;SDS011;3835;48.850;8.938;2024-01-11T12:09:41;47.57;;;30.10;;
7587;SDS011;3835;48.850;8.938;2024-01-11T12:12:08;43.23;;;31.30;;
7587;SDS011;3835;48.850;8.938;2024-01-11T12:14:35;43.90;;;30.57;;
7587;SDS011;3835;48.850;8.938;2024-01-11T12:17:02;46.73;;;32.67;;
7587;SDS011;3835;48.850;8.938;2024-01-11T12:19:31;45.47;;;32.97;;
7587;SDS011;3835;48.850;8.938;2024-01-11T12:21:58;48.90;;;34.03;;
7587;SDS011;3835;48.850;8.938;2024-01-11T12:24:25;47.70;;;34.40;;
7587;SDS011;3835;48.850;8.938;2024-01-11T12:26:55;47.13;;;32.73;;
7587;SDS011;3835;48.850;8.938;2024-01-11T12:29:22;51.80;;;34.83;;
7587;SDS011;3835;48.850;8.938;2024-01-11T12:31:49;48.33;;;34.13;;
7587;SDS011;3835;48.850;8.938;2024-01-11T12:34:17;49.30;;;35.10;;
7587;SDS011;3835;48.850;8.938;2024-01-11T12:36:45;48.33;;;32.73;;
7587;SDS011;3835;48.850;8.938;2024-01-11T12:39:13;47.97;;;32.40;;
7587;SDS011;3835;48.850;8.938;2024-01-11T12:41:40;47.13;;;34.93;;
7587;SDS011;3835;48.850;8.938;2024-01-11T12:44:08;45.00;;;32.83;;
7587;SDS011;3835;48.850;8.938;2024-01-11T12:46:35;50.23;;;34.63;;
7587;SDS011;3835;48.850;8.938;2024-01-11T12:49:01;47.42;;;32.25;;
7587;SDS011;3835;48.850;8.938;2024-01-11T12:51:28;45.60;;;33.90;;
7587;SDS011;3835;48.850;8.938;2024-01-11T12:53:57;43.83;;;31.20;;
7587;SDS011;3835;48.850;8.938;2024-01-11T12:56:24;47.60;;;33.53;;
7587;SDS011;3835;48.850;8.938;2024-01-11T12:58:51;43.03;;;32.80;;
7587;SDS011;3835;48.850;8.938;2024-01-11T13:01:30;47.90;;;33.72;;
7587;SDS011;3835;48.850;8.938;2024-01-11T13:03:57;48.67;;;33.83;;
7587;SDS011;3835;48.850;8.938;2024-01-11T13:06:24;46.20;;;34.67;;
7587;SDS011;3835;48.850;8.938;2024-01-11T13:08:51;42.93;;;32.07;;
7587;SDS011;3835;48.850;8.938;2024-01-11T13:11:19;47.93;;;34.00;;
7587;SDS011;3835;48.850;8.938;2024-01-11T13:13:48;50.37;;;33.20;;
7587;SDS011;3835;48.850;8.938;2024-01-11T13:16:15;48.33;;;34.77;;
7587;SDS011;3835;48.850;8.938;2024-01-11T13:18:44;46.60;;;33.10;;
7587;SDS011;3835;48.850;8.938;2024-01-11T13:21:10;49.10;;;34.07;;
7587;SDS011;3835;48.850;8.938;2024-01-11T13:23:38;47.10;;;31.70;;
7587;SDS011;3835;48.850;8.938;2024-01-11T13:26:05;47.50;;;31.08;;
7587;SDS011;3835;48.850;8.938;2024-01-11T13:28:35;42.00;;;28.77;;
7587;SDS011;3835;48.850;8.938;2024-01-11T13:31:02;45.70;;;30.17;;
7587;SDS011;3835;48.850;8.938;2024-01-11T13:33:28;44.33;;;30.93;;
7587;SDS011;3835;48.850;8.938;2024-01-11T13:35:55;46.13;;;29.65;;
7587;SDS011;3835;48.850;8.938;2024-01-11T13:38:22;51.77;;;29.77;;
7587;SDS011;3835;48.850;8.938;2024-01-11T13:40:49;48.43;;;30.67;;
7587;SDS011;3835;48.850;8.938;2024-01-11T13:43:16;55.47;;;33.07;;
7587;SDS011;3835;48.850;8.938;2024-01-11T13:45:44;48.13;;;30.20;;
7587;SDS011;3835;48.850;8.938;2024-01-11T13:48:11;49.35;;;31.08;;
7587;SDS011;3835;48.850;8.938;2024-01-11T13:50:38;51.00;;;32.90;;
7587;SDS011;3835;48.850;8.938;2024-01-11T13:53:05;46.30;;;31.67;;
7587;SDS011;3835;48.850;8.938;2024-01-11T13:55:32;47.70;;;33.57;;
7587;SDS011;3835;48.850;8.938;2024-01-11T13:58:03;50.20;;;34.67;;
7587;SDS011;3835;48.850;8.938;2024-01-11T14:00:30;48.97;;;33.45;;
7587;SDS011;3835;48.850;8.938;2024-01-11T14:02:59;49.92;;;31.73;;
7587;SDS011;3835;48.850;8.938;2024-01-11T14:05:26;51.22;;;34.58;;
7587;SDS011;3835;48.850;8.938;2024-01-11T14:07:53;48.53;;;34.50;;
7587;SDS011;3835;48.850;8.938;2024-01-11T14:10:23;50.22;;;35.08;;
7587;SDS011;3835;48.850;8.938;2024-01-11T14:12:51;54.28;;;37.28;;
7587;SDS011;3835;48.850;8.938;2024-01-11T14:15:17;50.00;;;36.47;;
7587;SDS011;3835;48.850;8.938;2024-01-11T14:17:44;46.33;;;33.97;;
7587;SDS011;3835;48.850;8.938;2024-01-11T14:20:14;58.80;;;34.87;;
7587;SDS011;3835;48.850;8.938;2024-01-11T14:22:41;39.45;;;30.60;;
7587;SDS011;3835;48.850;8.938;2024-01-11T14:25:12;47.00;;;32.50;;
7587;SDS011;3835;48.850;8.938;2024-01-11T14:27:39;47.97;;;33.17;;
7587;SDS011;3835;48.850;8.938;2024-01-11T14:30:06;57.50;;;34.47;;
7587;SDS011;3835;48.850;8.938;2024-01-11T14:32:34;46.00;;;31.80;;
7587;SDS011;3835;48.850;8.938;2024-01-11T14:35:01;49.85;;;32.28;;
7587;SDS011;3835;48.850;8.938;2024-01-11T14:37:31;44.47;;;32.33;;
7587;SDS011;3835;48.850;8.938;2024-01-11T14:39:58;49.92;;;33.45;;
7587;SDS011;3835;48.850;8.938;2024-01-11T14:42:25;40.70;;;32.25;;
7587;SDS011;3835;48.850;8.938;2024-01-11T14:44:52;52.05;;;33.35;;
7587;SDS011;3835;48.850;8.938;2024-01-11T14:47:19;43.90;;;31.17;;
7587;SDS011;3835;48.850;8.938;2024-01-11T14:49:46;48.17;;;32.67;;
7587;SDS011;3835;48.850;8.938;2024-01-11T14:52:13;51.40;;;33.05;;
7587;SDS011;3835;48.850;8.938;2024-01-11T14:54:41;48.07;;;30.90;;
7587;SDS011;3835;48.850;8.938;2024-01-11T14:57:08;43.28;;;31.45;;
7587;SDS011;3835;48.850;8.938;2024-01-11T14:59:35;47.77;;;32.17;;